sensor_id;sensor_type;location;lat;lon;timestamp;pressure;altitude;pressure_sealevel;temperature;humidity
40612;BME280;26317;44.894;20.286;2023-04-07T00:01:19;100640.53;;;5.72;88.08
40612;BME280;26317;44.894;20.286;2023-04-07T00:03:52;100636.50;;;5.70;88.07
40612;BME280;26317;44.894;20.286;2023-04-07T00:06:23;100639.28;;;5.75;88.20
40612;BME280;26317;44.894;20.286;2023-04-07T00:08:53;100638.78;;;5.78;87.79
40612;BME280;26317;44.894;20.286;2023-04-07T00:11:24;100640.91;;;5.76;87.24
40612;BME280;26317;44.894;20.286;2023-04-07T00:13:54;100637.09;;;5.72;87.47
40612;BME280;26317;44.894;20.286;2023-04-07T00:16:25;100626.22;;;5.62;87.98
40612;BME280;26317;44.894;20.286;2023-04-07T00:18:57;100644.72;;;5.68;88.06
40612;BME280;26317;44.894;20.286;2023-04-07T00:21:28;100643.69;;;5.69;88.19
40612;BME280;26317;44.894;20.286;2023-04-07T00:23:58;100635.38;;;5.66;88.18
40612;BME280;26317;44.894;20.286;2023-04-07T00:26:28;100615.97;;;5.53;88.36
40612;BME280;26317;44.894;20.286;2023-04-07T00:28:59;100631.06;;;5.65;88.13
40612;BME280;26317;44.894;20.286;2023-04-07T00:31:29;100634.78;;;5.64;88.47
40612;BME280;26317;44.894;20.286;2023-04-07T00:34:02;100636.88;;;5.62;88.52
40612;BME280;26317;44.894;20.286;2023-04-07T00:36:33;100575.41;;;5.35;88.90
40612;BME280;26317;44.894;20.286;2023-04-07T00:39:03;100620.53;;;5.70;88.84
40612;BME280;26317;44.894;20.286;2023-04-07T00:41:34;100625.88;;;5.70;88.96
40612;BME280;26317;44.894;20.286;2023-04-07T00:44:05;100620.78;;;5.68;88.81
40612;BME280;26317;44.894;20.286;2023-04-07T00:46:35;100616.16;;;5.64;89.00
40612;BME280;26317;44.894;20.286;2023-04-07T00:49:08;100618.59;;;5.65;88.95
40612;BME280;26317;44.894;20.286;2023-04-07T00:51:39;100626.91;;;5.69;88.81
40612;BME280;26317;44.894;20.286;2023-04-07T00:54:10;100616.75;;;5.66;88.81
40612;BME280;26317;44.894;20.286;2023-04-07T00:56:41;100614.56;;;5.63;88.77
40612;BME280;26317;44.894;20.286;2023-04-07T00:59:14;100613.88;;;5.55;88.69
40612;BME280;26317;44.894;20.286;2023-04-07T01:01:57;100617.00;;;5.52;89.06
40612;BME280;26317;44.894;20.286;2023-04-07T01:04:40;100618.63;;;5.53;88.77
40612;BME280;26317;44.894;20.286;2023-04-07T01:07:17;100615.50;;;5.56;88.85
40612;BME280;26317;44.894;20.286;2023-04-07T01:10:02;100616.88;;;5.47;89.22
40612;BME280;26317;44.894;20.286;2023-04-07T01:12:46;100618.19;;;5.45;89.35
40612;BME280;26317;44.894;20.286;2023-04-07T01:15:21;100603.59;;;5.47;88.83
40612;BME280;26317;44.894;20.286;2023-04-07T01:17:59;100598.09;;;5.37;89.22
40612;BME280;26317;44.894;20.286;2023-04-07T01:20:35;100600.03;;;5.30;89.11
40612;BME280;26317;44.894;20.286;2023-04-07T01:23:06;100608.25;;;5.40;89.78
40612;BME280;26317;44.894;20.286;2023-04-07T01:26:06;100614.16;;;5.42;89.76
40612;BME280;26317;44.894;20.286;2023-04-07T01:28:55;100606.88;;;5.38;88.37
40612;BME280;26317;44.894;20.286;2023-04-07T01:31:29;100610.44;;;5.43;88.42
40612;BME280;26317;44.894;20.286;2023-04-07T01:34:00;100604.56;;;5.41;87.91
40612;BME280;26317;44.894;20.286;2023-04-07T01:36:33;100599.22;;;5.41;88.56
40612;BME280;26317;44.894;20.286;2023-04-07T01:39:04;100589.41;;;5.30;86.91
40612;BME280;26317;44.894;20.286;2023-04-07T01:41:36;100606.28;;;5.36;86.33
40612;BME280;26317;44.894;20.286;2023-04-07T01:44:08;100586.78;;;5.19;87.05
40612;BME280;26317;44.894;20.286;2023-04-07T01:46:42;100598.91;;;5.26;87.32
40612;BME280;26317;44.894;20.286;2023-04-07T01:49:14;100579.97;;;5.11;87.30
40612;BME280;26317;44.894;20.286;2023-04-07T01:51:45;100601.56;;;5.15;86.07
40612;BME280;26317;44.894;20.286;2023-04-07T01:54:17;100587.50;;;4.91;85.43
40612;BME280;26317;44.894;20.286;2023-04-07T01:56:48;100594.31;;;4.87;85.66
40612;BME280;26317;44.894;20.286;2023-04-07T01:59:20;100609.47;;;4.86;85.64
40612;BME280;26317;44.894;20.286;2023-04-07T02:01:53;100601.03;;;4.78;86.33
40612;BME280;26317;44.894;20.286;2023-04-07T02:04:28;100611.66;;;4.78;87.06
40612;BME280;26317;44.894;20.286;2023-04-07T02:07:04;100611.53;;;4.73;87.55
40612;BME280;26317;44.894;20.286;2023-04-07T02:09:45;100614.19;;;4.73;87.61
40612;BME280;26317;44.894;20.286;2023-04-07T02:12:16;100616.72;;;4.68;88.33
40612;BME280;26317;44.894;20.286;2023-04-07T02:14:57;100608.75;;;4.56;89.22
40612;BME280;26317;44.894;20.286;2023-04-07T02:17:35;100608.41;;;4.52;90.25
40612;BME280;26317;44.894;20.286;2023-04-07T02:20:09;100603.09;;;4.52;90.11
40612;BME280;26317;44.894;20.286;2023-04-07T02:22:42;100572.78;;;4.30;91.01
40612;BME280;26317;44.894;20.286;2023-04-07T02:25:20;100598.81;;;4.51;91.29
40612;BME280;26317;44.894;20.286;2023-04-07T02:27:53;100603.78;;;4.59;91.73
40612;BME280;26317;44.894;20.286;2023-04-07T02:30:24;100583.47;;;4.53;91.66
40612;BME280;26317;44.894;20.286;2023-04-07T02:32:58;100594.78;;;4.60;91.75
40612;BME280;26317;44.894;20.286;2023-04-07T02:35:28;100589.38;;;4.67;91.94
40612;BME280;26317;44.894;20.286;2023-04-07T02:38:01;100604.94;;;4.63;91.85
40612;BME280;26317;44.894;20.286;2023-04-07T02:40:34;100609.47;;;4.63;92.46
40612;BME280;26317;44.894;20.286;2023-04-07T02:43:06;100584.97;;;4.61;93.30
40612;BME280;26317;44.894;20.286;2023-04-07T02:45:36;100598.97;;;4.80;93.83
40612;BME280;26317;44.894;20.286;2023-04-07T02:48:09;100602.41;;;4.69;91.97
40612;BME280;26317;44.894;20.286;2023-04-07T02:50:39;100601.25;;;4.64;92.01
40612;BME280;26317;44.894;20.286;2023-04-07T02:53:10;100591.09;;;4.61;92.65
40612;BME280;26317;44.894;20.286;2023-04-07T02:55:40;100590.50;;;4.48;92.57
40612;BME280;26317;44.894;20.286;2023-04-07T02:58:11;100593.63;;;4.56;93.68
40612;BME280;26317;44.894;20.286;2023-04-07T03:00:43;100591.56;;;4.58;93.90
40612;BME280;26317;44.894;20.286;2023-04-07T03:03:25;100576.75;;;4.51;93.95
40612;BME280;26317;44.894;20.286;2023-04-07T03:06:21;100585.66;;;4.56;94.28
40612;BME280;26317;44.894;20.286;2023-04-07T03:09:03;100583.25;;;4.55;93.76
40612;BME280;26317;44.894;20.286;2023-04-07T03:11:34;100570.75;;;4.44;93.37
40612;BME280;26317;44.894;20.286;2023-04-07T03:14:05;100566.09;;;4.28;93.36
40612;BME280;26317;44.894;20.286;2023-04-07T03:16:43;100592.66;;;4.39;94.41
40612;BME280;26317;44.894;20.286;2023-04-07T03:19:17;100588.97;;;4.40;95.14
40612;BME280;26317;44.894;20.286;2023-04-07T03:21:49;100592.22;;;4.42;95.96
40612;BME280;26317;44.894;20.286;2023-04-07T03:24:20;100565.63;;;4.19;95.25
40612;BME280;26317;44.894;20.286;2023-04-07T03:26:50;100589.88;;;4.34;96.20
40612;BME280;26317;44.894;20.286;2023-04-07T03:29:29;100594.97;;;4.36;96.79
40612;BME280;26317;44.894;20.286;2023-04-07T03:32:01;100594.84;;;4.31;96.57
40612;BME280;26317;44.894;20.286;2023-04-07T03:34:34;100577.88;;;4.20;96.75
40612;BME280;26317;44.894;20.286;2023-04-07T03:37:05;100593.25;;;4.30;96.74
40612;BME280;26317;44.894;20.286;2023-04-07T03:39:37;100600.75;;;4.33;97.26
40612;BME280;26317;44.894;20.286;2023-04-07T03:42:22;100600.97;;;4.31;97.64
40612;BME280;26317;44.894;20.286;2023-04-07T03:44:59;100556.69;;;4.02;97.86
40612;BME280;26317;44.894;20.286;2023-04-07T03:47:32;100611.59;;;4.31;97.93
40612;BME280;26317;44.894;20.286;2023-04-07T03:50:09;100609.13;;;4.18;97.70
40612;BME280;26317;44.894;20.286;2023-04-07T03:52:49;100605.75;;;4.11;97.45
40612;BME280;26317;44.894;20.286;2023-04-07T03:55:24;100615.09;;;4.13;97.62
40612;BME280;26317;44.894;20.286;2023-04-07T03:57:59;100615.56;;;4.10;98.09
40612;BME280;26317;44.894;20.286;2023-04-07T04:00:33;100584.25;;;4.01;97.93
40612;BME280;26317;44.894;20.286;2023-04-07T04:03:07;100609.38;;;4.16;97.69
40612;BME280;26317;44.894;20.286;2023-04-07T04:05:51;100598.50;;;4.18;97.58
40612;BME280;26317;44.894;20.286;2023-04-07T04:08:27;100616.06;;;4.19;97.73
40612;BME280;26317;44.894;20.286;2023-04-07T04:10:58;100618.00;;;4.12;97.05
40612;BME280;26317;44.894;20.286;2023-04-07T04:13:34;100622.41;;;4.18;97.48
40612;BME280;26317;44.894;20.286;2023-04-07T04:16:06;100617.47;;;4.22;98.36
40612;BME280;26317;44.894;20.286;2023-04-07T04:18:41;100589.13;;;4.04;98.14
40612;BME280;26317;44.894;20.286;2023-04-07T04:21:16;100617.81;;;4.25;98.16
40612;BME280;26317;44.894;20.286;2023-04-07T04:23:47;100613.75;;;4.23;98.30
40612;BME280;26317;44.894;20.286;2023-04-07T04:26:18;100623.13;;;4.25;98.55
40612;BME280;26317;44.894;20.286;2023-04-07T04:28:56;100624.28;;;4.29;98.74
40612;BME280;26317;44.894;20.286;2023-04-07T04:31:26;100626.00;;;4.24;98.59
40612;BME280;26317;44.894;20.286;2023-04-07T04:33:58;100625.47;;;4.33;98.36
40612;BME280;26317;44.894;20.286;2023-04-07T04:36:32;100628.69;;;4.35;98.24
40612;BME280;26317;44.894;20.286;2023-04-07T04:39:05;100621.31;;;4.37;98.90
40612;BME280;26317;44.894;20.286;2023-04-07T04:41:36;100627.78;;;4.41;98.30
40612;BME280;26317;44.894;20.286;2023-04-07T04:44:08;100615.75;;;4.39;98.04
40612;BME280;26317;44.894;20.286;2023-04-07T04:46:40;100636.09;;;4.45;97.67
40612;BME280;26317;44.894;20.286;2023-04-07T04:49:11;100621.88;;;4.39;97.38
40612;BME280;26317;44.894;20.286;2023-04-07T04:51:49;100625.47;;;4.33;97.31
40612;BME280;26317;44.894;20.286;2023-04-07T04:54:22;100641.28;;;4.40;97.45
40612;BME280;26317;44.894;20.286;2023-04-07T04:56:52;100640.78;;;4.31;97.95
40612;BME280;26317;44.894;20.286;2023-04-07T04:59:24;100640.66;;;4.26;97.98
40612;BME280;26317;44.894;20.286;2023-04-07T05:02:00;100610.50;;;4.09;98.69
40612;BME280;26317;44.894;20.286;2023-04-07T05:04:34;100646.88;;;4.20;98.62
40612;BME280;26317;44.894;20.286;2023-04-07T05:07:19;100649.84;;;4.12;98.22
40612;BME280;26317;44.894;20.286;2023-04-07T05:09:50;100652.88;;;4.15;98.94
40612;BME280;26317;44.894;20.286;2023-04-07T05:12:21;100644.22;;;4.20;99.70
40612;BME280;26317;44.894;20.286;2023-04-07T05:14:57;100631.50;;;4.10;99.82
40612;BME280;26317;44.894;20.286;2023-04-07T05:17:27;100646.09;;;4.31;99.96
40612;BME280;26317;44.894;20.286;2023-04-07T05:20:00;100650.84;;;4.29;99.86
40612;BME280;26317;44.894;20.286;2023-04-07T05:22:39;100654.53;;;4.28;99.18
40612;BME280;26317;44.894;20.286;2023-04-07T05:25:12;100659.03;;;4.28;98.68
40612;BME280;26317;44.894;20.286;2023-04-07T05:27:46;100641.28;;;4.10;98.95
40612;BME280;26317;44.894;20.286;2023-04-07T05:30:17;100665.00;;;4.23;99.55
40612;BME280;26317;44.894;20.286;2023-04-07T05:32:48;100661.53;;;4.23;99.93
40612;BME280;26317;44.894;20.286;2023-04-07T05:35:43;100640.13;;;4.06;100.00
40612;BME280;26317;44.894;20.286;2023-04-07T05:38:17;100666.34;;;4.14;100.00
40612;BME280;26317;44.894;20.286;2023-04-07T05:40:48;100660.19;;;4.02;100.00
40612;BME280;26317;44.894;20.286;2023-04-07T05:43:26;100678.91;;;4.07;100.00
40612;BME280;26317;44.894;20.286;2023-04-07T05:45:57;100672.56;;;4.08;100.00
40612;BME280;26317;44.894;20.286;2023-04-07T05:48:29;100679.38;;;4.04;100.00
40612;BME280;26317;44.894;20.286;2023-04-07T05:50:59;100648.34;;;4.04;100.00
40612;BME280;26317;44.894;20.286;2023-04-07T05:53:33;100669.91;;;4.08;100.00
40612;BME280;26317;44.894;20.286;2023-04-07T05:56:03;100680.09;;;4.11;100.00
40612;BME280;26317;44.894;20.286;2023-04-07T05:58:45;100657.38;;;3.97;100.00
40612;BME280;26317;44.894;20.286;2023-04-07T06:01:17;100684.38;;;4.12;100.00
40612;BME280;26317;44.894;20.286;2023-04-07T06:03:48;100657.53;;;4.02;100.00
40612;BME280;26317;44.894;20.286;2023-04-07T06:06:21;100674.47;;;4.01;100.00
40612;BME280;26317;44.894;20.286;2023-04-07T06:08:54;100684.00;;;4.08;100.00
40612;BME280;26317;44.894;20.286;2023-04-07T06:11:25;100657.13;;;3.87;100.00
40612;BME280;26317;44.894;20.286;2023-04-07T06:13:55;100679.44;;;3.97;100.00
40612;BME280;26317;44.894;20.286;2023-04-07T06:16:26;100682.53;;;3.94;100.00
40612;BME280;26317;44.894;20.286;2023-04-07T06:18:57;100682.75;;;3.93;100.00
40612;BME280;26317;44.894;20.286;2023-04-07T06:21:28;100679.53;;;3.91;100.00
40612;BME280;26317;44.894;20.286;2023-04-07T06:24:02;100669.38;;;3.88;100.00
40612;BME280;26317;44.894;20.286;2023-04-07T06:26:34;100676.22;;;3.95;100.00
40612;BME280;26317;44.894;20.286;2023-04-07T06:29:04;100677.28;;;4.06;100.00
40612;BME280;26317;44.894;20.286;2023-04-07T06:31:35;100678.91;;;4.07;100.00
40612;BME280;26317;44.894;20.286;2023-04-07T06:34:05;100681.56;;;4.07;99.94
40612;BME280;26317;44.894;20.286;2023-04-07T06:36:35;100674.94;;;3.98;100.00
40612;BME280;26317;44.894;20.286;2023-04-07T06:39:08;100683.19;;;4.08;100.00
40612;BME280;26317;44.894;20.286;2023-04-07T06:41:39;100680.75;;;4.06;100.00
40612;BME280;26317;44.894;20.286;2023-04-07T06:44:10;100689.22;;;4.15;100.00
40612;BME280;26317;44.894;20.286;2023-04-07T06:46:40;100698.66;;;4.11;100.00
40612;BME280;26317;44.894;20.286;2023-04-07T06:49:14;100696.72;;;4.18;99.92
40612;BME280;26317;44.894;20.286;2023-04-07T06:51:44;100656.16;;;3.99;100.00
40612;BME280;26317;44.894;20.286;2023-04-07T06:54:18;100703.78;;;4.24;99.48
40612;BME280;26317;44.894;20.286;2023-04-07T06:56:48;100711.31;;;4.27;98.92
40612;BME280;26317;44.894;20.286;2023-04-07T06:59:20;100709.09;;;4.24;98.42
40612;BME280;26317;44.894;20.286;2023-04-07T07:01:50;100709.31;;;4.23;97.93
40612;BME280;26317;44.894;20.286;2023-04-07T07:04:22;100710.66;;;4.13;97.68
40612;BME280;26317;44.894;20.286;2023-04-07T07:06:52;100714.72;;;4.16;97.98
40612;BME280;26317;44.894;20.286;2023-04-07T07:09:25;100705.31;;;4.02;98.67
40612;BME280;26317;44.894;20.286;2023-04-07T07:11:55;100719.88;;;4.11;99.01
40612;BME280;26317;44.894;20.286;2023-04-07T07:14:30;100703.66;;;4.01;98.81
40612;BME280;26317;44.894;20.286;2023-04-07T07:17:00;100718.31;;;3.92;98.50
40612;BME280;26317;44.894;20.286;2023-04-07T07:19:30;100736.19;;;4.14;99.57
40612;BME280;26317;44.894;20.286;2023-04-07T07:22:01;100730.16;;;4.07;99.56
40612;BME280;26317;44.894;20.286;2023-04-07T07:24:34;100733.31;;;4.16;100.00
40612;BME280;26317;44.894;20.286;2023-04-07T07:27:05;100726.00;;;4.11;99.27
40612;BME280;26317;44.894;20.286;2023-04-07T07:29:36;100705.03;;;3.92;99.42
40612;BME280;26317;44.894;20.286;2023-04-07T07:32:06;100730.91;;;3.96;99.62
40612;BME280;26317;44.894;20.286;2023-04-07T07:34:36;100733.63;;;4.08;99.51
40612;BME280;26317;44.894;20.286;2023-04-07T07:37:07;100738.25;;;4.12;100.00
40612;BME280;26317;44.894;20.286;2023-04-07T07:39:41;100739.28;;;4.11;100.00
40612;BME280;26317;44.894;20.286;2023-04-07T07:42:14;100748.28;;;4.10;100.00
40612;BME280;26317;44.894;20.286;2023-04-07T07:44:44;100736.41;;;4.13;100.00
40612;BME280;26317;44.894;20.286;2023-04-07T07:47:14;100734.47;;;4.20;100.00
40612;BME280;26317;44.894;20.286;2023-04-07T07:49:45;100748.94;;;4.24;99.90
40612;BME280;26317;44.894;20.286;2023-04-07T07:52:15;100741.84;;;4.18;100.00
40612;BME280;26317;44.894;20.286;2023-04-07T07:54:50;100736.31;;;4.20;100.00
40612;BME280;26317;44.894;20.286;2023-04-07T07:57:20;100740.34;;;4.40;100.00
40612;BME280;26317;44.894;20.286;2023-04-07T07:59:51;100748.13;;;4.53;100.00
40612;BME280;26317;44.894;20.286;2023-04-07T08:02:21;100747.44;;;4.58;100.00
40612;BME280;26317;44.894;20.286;2023-04-07T08:04:57;100750.00;;;4.64;100.00
40612;BME280;26317;44.894;20.286;2023-04-07T08:07:28;100761.44;;;4.65;97.75
40612;BME280;26317;44.894;20.286;2023-04-07T08:10:01;100752.53;;;4.59;97.66
40612;BME280;26317;44.894;20.286;2023-04-07T08:12:32;100760.63;;;4.64;99.47
40612;BME280;26317;44.894;20.286;2023-04-07T08:15:03;100762.72;;;4.62;99.49
40612;BME280;26317;44.894;20.286;2023-04-07T08:17:36;100760.28;;;4.61;99.63
40612;BME280;26317;44.894;20.286;2023-04-07T08:20:08;100759.91;;;4.57;100.00
40612;BME280;26317;44.894;20.286;2023-04-07T08:22:39;100754.25;;;4.54;99.54
40612;BME280;26317;44.894;20.286;2023-04-07T08:25:12;100763.13;;;4.59;100.00
40612;BME280;26317;44.894;20.286;2023-04-07T08:27:42;100762.47;;;4.64;99.69
40612;BME280;26317;44.894;20.286;2023-04-07T08:30:13;100779.56;;;4.68;97.69
40612;BME280;26317;44.894;20.286;2023-04-07T08:32:44;100766.84;;;4.58;96.58
40612;BME280;26317;44.894;20.286;2023-04-07T08:35:15;100735.16;;;4.45;97.40
40612;BME280;26317;44.894;20.286;2023-04-07T08:37:45;100769.19;;;4.67;97.34
40612;BME280;26317;44.894;20.286;2023-04-07T08:40:19;100768.28;;;4.73;98.77
40612;BME280;26317;44.894;20.286;2023-04-07T08:42:50;100772.41;;;4.69;97.42
40612;BME280;26317;44.894;20.286;2023-04-07T08:45:21;100768.94;;;4.68;97.06
40612;BME280;26317;44.894;20.286;2023-04-07T08:47:54;100761.44;;;4.65;97.75
40612;BME280;26317;44.894;20.286;2023-04-07T08:50:26;100774.03;;;4.70;96.38
40612;BME280;26317;44.894;20.286;2023-04-07T08:52:59;100774.25;;;4.68;96.08
40612;BME280;26317;44.894;20.286;2023-04-07T08:55:37;100765.78;;;4.59;95.49
40612;BME280;26317;44.894;20.286;2023-04-07T08:58:08;100782.63;;;4.72;95.56
40612;BME280;26317;44.894;20.286;2023-04-07T09:00:40;100783.66;;;4.71;95.42
40612;BME280;26317;44.894;20.286;2023-04-07T09:03:12;100782.03;;;4.70;96.01
40612;BME280;26317;44.894;20.286;2023-04-07T09:05:43;100757.84;;;4.59;96.76
40612;BME280;26317;44.894;20.286;2023-04-07T09:08:14;100775.44;;;4.72;96.17
40612;BME280;26317;44.894;20.286;2023-04-07T09:10:47;100780.34;;;4.87;97.87
40612;BME280;26317;44.894;20.286;2023-04-07T09:13:17;100796.41;;;4.92;97.38
40612;BME280;26317;44.894;20.286;2023-04-07T09:15:48;100787.31;;;4.99;96.33
40612;BME280;26317;44.894;20.286;2023-04-07T09:18:18;100792.88;;;5.09;96.73
40612;BME280;26317;44.894;20.286;2023-04-07T09:20:56;100792.78;;;5.16;94.62
40612;BME280;26317;44.894;20.286;2023-04-07T09:23:28;100784.41;;;5.01;94.59
40612;BME280;26317;44.894;20.286;2023-04-07T09:26:20;100797.59;;;4.96;94.57
40612;BME280;26317;44.894;20.286;2023-04-07T09:28:53;100794.19;;;4.89;94.85
40612;BME280;26317;44.894;20.286;2023-04-07T09:31:43;100769.91;;;4.74;95.74
40612;BME280;26317;44.894;20.286;2023-04-07T09:34:22;100801.13;;;4.90;96.34
40612;BME280;26317;44.894;20.286;2023-04-07T09:36:54;100788.78;;;4.84;96.40
40612;BME280;26317;44.894;20.286;2023-04-07T09:39:24;100794.78;;;4.91;96.99
40612;BME280;26317;44.894;20.286;2023-04-07T09:41:57;100794.13;;;4.95;95.85
40612;BME280;26317;44.894;20.286;2023-04-07T09:44:28;100790.75;;;4.88;96.20
40612;BME280;26317;44.894;20.286;2023-04-07T09:47:08;100799.44;;;4.95;96.53
40612;BME280;26317;44.894;20.286;2023-04-07T09:49:49;100778.38;;;4.82;96.63
40612;BME280;26317;44.894;20.286;2023-04-07T09:52:24;100797.91;;;4.88;96.13
40612;BME280;26317;44.894;20.286;2023-04-07T09:54:55;100796.63;;;4.90;97.03
40612;BME280;26317;44.894;20.286;2023-04-07T09:57:28;100790.03;;;4.93;96.62
40612;BME280;26317;44.894;20.286;2023-04-07T09:59:59;100801.84;;;4.97;95.98
40612;BME280;26317;44.894;20.286;2023-04-07T10:02:38;100786.72;;;4.97;95.13
40612;BME280;26317;44.894;20.286;2023-04-07T10:05:10;100789.16;;;4.99;93.61
40612;BME280;26317;44.894;20.286;2023-04-07T10:07:40;100795.63;;;5.03;92.51
40612;BME280;26317;44.894;20.286;2023-04-07T10:10:11;100794.13;;;4.95;93.50
40612;BME280;26317;44.894;20.286;2023-04-07T10:12:45;100785.47;;;5.00;95.07
40612;BME280;26317;44.894;20.286;2023-04-07T10:15:17;100790.34;;;5.15;94.13
40612;BME280;26317;44.894;20.286;2023-04-07T10:17:48;100796.03;;;5.30;94.61
40612;BME280;26317;44.894;20.286;2023-04-07T10:20:19;100798.09;;;5.28;92.27
40612;BME280;26317;44.894;20.286;2023-04-07T10:22:51;100774.50;;;5.08;91.82
40612;BME280;26317;44.894;20.286;2023-04-07T10:25:23;100811.75;;;5.31;91.02
40612;BME280;26317;44.894;20.286;2023-04-07T10:28:00;100807.03;;;5.33;90.36
40612;BME280;26317;44.894;20.286;2023-04-07T10:30:34;100808.41;;;5.47;90.77
40612;BME280;26317;44.894;20.286;2023-04-07T10:33:05;100803.91;;;5.48;90.57
40612;BME280;26317;44.894;20.286;2023-04-07T10:36:03;100802.66;;;5.50;90.40
40612;BME280;26317;44.894;20.286;2023-04-07T10:38:35;100787.59;;;5.44;91.85
40612;BME280;26317;44.894;20.286;2023-04-07T10:41:32;100814.88;;;5.51;90.30
40612;BME280;26317;44.894;20.286;2023-04-07T10:44:06;100815.94;;;5.62;90.56
40612;BME280;26317;44.894;20.286;2023-04-07T10:47:03;100807.03;;;5.56;91.72
40612;BME280;26317;44.894;20.286;2023-04-07T10:49:35;100788.75;;;5.48;90.03
40612;BME280;26317;44.894;20.286;2023-04-07T10:52:29;100814.91;;;5.75;88.97
40612;BME280;26317;44.894;20.286;2023-04-07T10:55:30;100816.53;;;5.76;87.98
40612;BME280;26317;44.894;20.286;2023-04-07T10:58:17;100808.31;;;5.66;87.37
40612;BME280;26317;44.894;20.286;2023-04-07T11:01:18;100820.44;;;5.85;89.03
40612;BME280;26317;44.894;20.286;2023-04-07T11:03:55;100818.28;;;5.93;88.46
40612;BME280;26317;44.894;20.286;2023-04-07T11:06:26;100822.91;;;5.86;88.87
40612;BME280;26317;44.894;20.286;2023-04-07T11:08:57;100819.41;;;5.86;87.37
40612;BME280;26317;44.894;20.286;2023-04-07T11:11:38;100824.16;;;5.84;87.34
40612;BME280;26317;44.894;20.286;2023-04-07T11:14:09;100820.03;;;5.88;88.45
40612;BME280;26317;44.894;20.286;2023-04-07T11:16:43;100806.94;;;5.86;86.67
40612;BME280;26317;44.894;20.286;2023-04-07T11:19:13;100807.03;;;5.68;87.16
40612;BME280;26317;44.894;20.286;2023-04-07T11:21:46;100804.16;;;5.70;87.92
40612;BME280;26317;44.894;20.286;2023-04-07T11:24:31;100819.88;;;5.83;87.31
40612;BME280;26317;44.894;20.286;2023-04-07T11:27:04;100828.59;;;5.90;86.67
40612;BME280;26317;44.894;20.286;2023-04-07T11:29:35;100811.56;;;5.79;85.98
40612;BME280;26317;44.894;20.286;2023-04-07T11:32:08;100811.31;;;5.81;84.99
40612;BME280;26317;44.894;20.286;2023-04-07T11:34:39;100833.66;;;6.03;84.99
40612;BME280;26317;44.894;20.286;2023-04-07T11:37:18;100816.41;;;5.94;84.80
40612;BME280;26317;44.894;20.286;2023-04-07T11:39:51;100829.50;;;6.07;83.39
40612;BME280;26317;44.894;20.286;2023-04-07T11:42:34;100814.25;;;5.91;84.37
40612;BME280;26317;44.894;20.286;2023-04-07T11:45:15;100833.19;;;6.06;85.43
40612;BME280;26317;44.894;20.286;2023-04-07T11:47:49;100832.28;;;6.12;85.38
40612;BME280;26317;44.894;20.286;2023-04-07T11:50:38;100843.03;;;6.17;85.68
40612;BME280;26317;44.894;20.286;2023-04-07T11:53:09;100828.09;;;6.16;85.50
40612;BME280;26317;44.894;20.286;2023-04-07T11:55:39;100799.97;;;6.09;85.16
40612;BME280;26317;44.894;20.286;2023-04-07T11:58:10;100829.59;;;6.24;83.75
40612;BME280;26317;44.894;20.286;2023-04-07T12:00:52;100831.41;;;6.35;84.04
40612;BME280;26317;44.894;20.286;2023-04-07T12:03:26;100820.88;;;6.28;82.21
40612;BME280;26317;44.894;20.286;2023-04-07T12:05:59;100832.91;;;6.42;83.54
40612;BME280;26317;44.894;20.286;2023-04-07T12:08:37;100823.28;;;6.41;82.36
40612;BME280;26317;44.894;20.286;2023-04-07T12:11:08;100834.13;;;6.52;82.69
40612;BME280;26317;44.894;20.286;2023-04-07T12:13:38;100818.53;;;6.43;81.07
40612;BME280;26317;44.894;20.286;2023-04-07T12:16:08;100819.47;;;6.37;80.91
40612;BME280;26317;44.894;20.286;2023-04-07T12:18:41;100838.25;;;6.42;81.19
40612;BME280;26317;44.894;20.286;2023-04-07T12:21:12;100835.31;;;6.44;81.92
40612;BME280;26317;44.894;20.286;2023-04-07T12:23:42;100834.16;;;6.40;82.01
40612;BME280;26317;44.894;20.286;2023-04-07T12:26:13;100839.31;;;6.30;82.16
40612;BME280;26317;44.894;20.286;2023-04-07T12:28:44;100821.13;;;6.27;83.32
40612;BME280;26317;44.894;20.286;2023-04-07T12:31:14;100829.22;;;6.32;82.03
40612;BME280;26317;44.894;20.286;2023-04-07T12:33:47;100839.75;;;6.38;81.32
40612;BME280;26317;44.894;20.286;2023-04-07T12:36:18;100830.84;;;6.33;81.42
40612;BME280;26317;44.894;20.286;2023-04-07T12:38:48;100814.41;;;6.24;80.78
40612;BME280;26317;44.894;20.286;2023-04-07T12:41:20;100844.72;;;6.35;80.95
40612;BME280;26317;44.894;20.286;2023-04-07T12:43:50;100835.34;;;6.32;81.10
40612;BME280;26317;44.894;20.286;2023-04-07T12:46:21;100840.78;;;6.37;80.88
40612;BME280;26317;44.894;20.286;2023-04-07T12:48:54;100843.56;;;6.31;82.77
40612;BME280;26317;44.894;20.286;2023-04-07T12:51:24;100844.16;;;6.33;83.32
40612;BME280;26317;44.894;20.286;2023-04-07T12:53:55;100851.56;;;6.42;83.36
40612;BME280;26317;44.894;20.286;2023-04-07T12:56:27;100829.81;;;6.34;83.33
40612;BME280;26317;44.894;20.286;2023-04-07T12:58:57;100836.88;;;6.28;83.53
40612;BME280;26317;44.894;20.286;2023-04-07T13:01:28;100854.00;;;6.32;83.51
40612;BME280;26317;44.894;20.286;2023-04-07T13:04:01;100827.06;;;6.17;84.11
40612;BME280;26317;44.894;20.286;2023-04-07T13:06:32;100855.75;;;6.27;84.16
40612;BME280;26317;44.894;20.286;2023-04-07T13:09:03;100847.41;;;6.23;84.63
40612;BME280;26317;44.894;20.286;2023-04-07T13:11:33;100859.00;;;6.29;85.07
40612;BME280;26317;44.894;20.286;2023-04-07T13:14:03;100854.13;;;6.26;86.21
40612;BME280;26317;44.894;20.286;2023-04-07T13:16:34;100851.94;;;6.11;85.81
40612;BME280;26317;44.894;20.286;2023-04-07T13:19:07;100841.19;;;6.06;85.58
40612;BME280;26317;44.894;20.286;2023-04-07T13:21:38;100851.75;;;6.01;86.37